Time;durP1;ratioP1;P1;durP2;ratioP2;P2;SDS_P1;SDS_P2;PMS_P1;PMS_P2;Temp;Humidity;BMP_temperature;BMP_pressure;BME280_temperature;BME280_humidity;BME280_pressure;Samples;Min_cycle;Max_cycle;Signal;HPM_P1;HPM_P2
2023/04/26 00:00:24;;;;;;;9.82;5.60;;;;;;;2.34;100.00;101776.25;5226413;28;20044;-66
2023/04/26 00:02:58;;;;;;;16.83;6.28;;;;;;;2.33;100.00;101787.69;5227091;28;20490;-66
2023/04/26 00:05:29;;;;;;;10.77;5.72;;;;;;;2.26;100.00;101787.88;5223099;28;20025;-66
2023/04/26 00:08:01;;;;;;;11.38;5.28;;;;;;;2.20;100.00;101775.75;5224263;28;20281;-66
2023/04/26 00:10:32;;;;;;;13.75;6.05;;;;;;;2.26;100.00;101783.50;5224885;28;20128;-66
2023/04/26 00:13:04;;;;;;;12.60;5.68;;;;;;;2.26;100.00;101782.63;5222596;28;20031;-66
2023/04/26 00:15:35;;;;;;;12.48;5.50;;;;;;;2.22;100.00;101781.84;5225015;28;20033;-66
2023/04/26 00:18:07;;;;;;;14.43;5.63;;;;;;;2.16;100.00;101788.13;5225748;28;20052;-66
2023/04/26 00:20:38;;;;;;;12.07;6.53;;;;;;;2.12;100.00;101785.63;5225538;28;20121;-66
2023/04/26 00:23:10;;;;;;;15.68;6.10;;;;;;;2.07;100.00;101787.50;5228503;28;20055;-66
2023/04/26 00:25:41;;;;;;;10.02;5.78;;;;;;;2.03;100.00;101786.72;5225787;28;20057;-66
2023/04/26 00:28:12;;;;;;;14.77;6.28;;;;;;;2.01;100.00;101782.41;5227819;28;20549;-66
2023/04/26 00:30:47;;;;;;;11.23;6.30;;;;;;;2.04;100.00;101785.84;5223689;28;20531;-66
2023/04/26 00:33:19;;;;;;;11.27;5.95;;;;;;;2.07;100.00;101784.88;5225522;28;20463;-66
2023/04/26 00:35:51;;;;;;;10.05;5.90;;;;;;;2.04;100.00;101788.47;5220717;28;20026;-66
2023/04/26 00:38:22;;;;;;;12.25;5.88;;;;;;;1.95;100.00;101780.78;5227401;28;20560;-66
2023/04/26 00:40:54;;;;;;;13.35;5.88;;;;;;;1.96;100.00;101785.16;5222996;28;20036;-66
2023/04/26 00:43:25;;;;;;;12.88;5.68;;;;;;;1.90;100.00;101788.81;5230456;28;20045;-66
2023/04/26 00:45:57;;;;;;;12.75;6.47;;;;;;;1.93;100.00;101787.88;5222060;28;20037;-67
2023/04/26 00:48:29;;;;;;;14.50;6.30;;;;;;;1.87;100.00;101788.88;5220411;28;20036;-66
2023/04/26 00:51:01;;;;;;;12.27;6.40;;;;;;;1.92;100.00;101791.41;5223025;28;20479;-66
2023/04/26 00:53:35;;;;;;;14.57;6.57;;;;;;;1.96;100.00;101782.53;5227731;28;20403;-66
2023/04/26 00:56:08;;;;;;;10.20;6.07;;;;;;;1.86;100.00;101789.81;5230668;28;20333;-66
2023/04/26 00:58:40;;;;;;;12.45;6.13;;;;;;;1.91;100.00;101789.69;5224466;28;20032;-66
2023/04/26 01:01:12;;;;;;;14.73;6.47;;;;;;;1.83;100.00;101784.59;5223756;28;20029;-66
2023/04/26 01:03:45;;;;;;;15.68;6.75;;;;;;;1.80;100.00;101789.94;5228761;28;20050;-66
2023/04/26 01:06:16;;;;;;;15.98;6.25;;;;;;;1.84;100.00;101785.47;5225405;28;20037;-66
2023/04/26 01:08:53;;;;;;;13.45;6.13;;;;;;;1.77;100.00;101779.50;5221799;28;20048;-66
2023/04/26 01:11:24;;;;;;;12.35;6.25;;;;;;;1.68;100.00;101785.84;5238612;28;20021;-66
2023/04/26 01:13:57;;;;;;;12.65;5.90;;;;;;;1.66;100.00;101782.38;5233584;28;20498;-66
2023/04/26 01:16:29;;;;;;;14.63;6.28;;;;;;;1.63;100.00;101792.13;5230137;28;20069;-66
2023/04/26 01:19:11;;;;;;;14.30;6.43;;;;;;;1.59;100.00;101788.69;5227312;28;20025;-66
2023/04/26 01:21:43;;;;;;;14.32;6.18;;;;;;;1.57;100.00;101785.22;5233956;28;20360;-66
2023/04/26 01:24:14;;;;;;;14.93;6.28;;;;;;;1.54;100.00;101782.69;5228102;28;20939;-66
2023/04/26 01:26:46;;;;;;;13.20;5.72;;;;;;;1.52;100.00;101782.72;5235037;28;20032;-66
2023/04/26 01:29:19;;;;;;;12.60;6.63;;;;;;;1.47;100.00;101787.22;5237125;28;20075;-66
2023/04/26 01:31:51;;;;;;;12.88;6.20;;;;;;;1.49;100.00;101797.69;5235973;28;20052;-66
2023/04/26 01:34:22;;;;;;;16.00;6.32;;;;;;;1.41;100.00;101797.03;5229554;28;20480;-66
2023/04/26 01:36:54;;;;;;;16.50;6.03;;;;;;;1.34;100.00;101791.91;5238204;28;20395;-66
2023/04/26 01:39:25;;;;;;;12.10;5.88;;;;;;;1.37;100.00;101799.72;5230036;28;20072;-66
2023/04/26 01:41:59;;;;;;;11.95;6.35;;;;;;;1.30;100.00;101794.63;5229671;28;20029;-66
2023/04/26 01:44:31;;;;;;;12.32;6.53;;;;;;;1.33;100.00;101798.06;5239450;28;20032;-66
2023/04/26 01:47:03;;;;;;;12.90;6.93;;;;;;;1.31;100.00;101791.13;5238831;28;20383;-66
2023/04/26 01:49:34;;;;;;;11.52;6.13;;;;;;;1.30;100.00;101790.22;5229898;28;20484;-66
2023/04/26 01:52:06;;;;;;;15.20;6.57;;;;;;;1.32;100.00;101788.47;5236886;28;20055;-66
2023/04/26 01:54:37;;;;;;;10.57;6.38;;;;;;;1.23;100.00;101785.13;5239149;28;20510;-66
2023/04/26 01:57:09;;;;;;;18.58;6.90;;;;;;;1.22;100.00;101792.16;5232348;28;20108;-66
2023/04/26 01:59:40;;;;;;;13.13;6.38;;;;;;;1.18;100.00;101786.13;5239820;28;20026;-66
2023/04/26 02:02:12;;;;;;;14.60;6.80;;;;;;;1.10;100.00;101793.31;5234517;28;20617;-66
2023/04/26 02:04:43;;;;;;;14.63;6.72;;;;;;;1.09;100.00;101788.09;5234701;28;20427;-66
2023/04/26 02:07:14;;;;;;;11.13;6.28;;;;;;;1.04;100.00;101788.19;5228709;28;20116;-66
2023/04/26 02:09:46;;;;;;;17.00;6.70;;;;;;;1.03;100.00;101785.59;5223598;28;20626;-66
2023/04/26 02:12:17;;;;;;;13.95;6.78;;;;;;;0.97;100.00;101790.06;5236450;28;20024;-66
2023/04/26 02:14:49;;;;;;;17.08;7.40;;;;;;;0.95;100.00;101791.00;5234685;28;20382;-66
2023/04/26 02:17:21;;;;;;;16.65;6.95;;;;;;;0.95;100.00;101794.50;5231537;28;20032;-67
2023/04/26 02:19:52;;;;;;;13.07;7.30;;;;;;;0.90;100.00;101784.97;5230772;28;20080;-66
2023/04/26 02:22:24;;;;;;;14.90;6.88;;;;;;;0.89;100.00;101789.38;5232641;28;20029;-66
2023/04/26 02:24:55;;;;;;;17.50;7.05;;;;;;;0.83;100.00;101789.50;5228983;28;20025;-66
2023/04/26 02:27:27;;;;;;;15.70;6.60;;;;;;;0.81;100.00;101787.84;5229434;28;20033;-66
2023/04/26 02:29:58;;;;;;;12.40;6.55;;;;;;;0.78;100.00;101786.09;5228704;28;20083;-66
2023/04/26 02:32:29;;;;;;;15.07;7.03;;;;;;;0.75;100.00;101787.06;5227074;28;20025;-68
2023/04/26 02:35:01;;;;;;;14.15;7.20;;;;;;;0.75;100.00;101786.19;5222613;28;20055;-66
2023/04/26 02:37:33;;;;;;;16.67;7.03;;;;;;;0.73;100.00;101780.06;5224025;28;20112;-66
2023/04/26 02:40:05;;;;;;;13.80;7.13;;;;;;;0.68;100.00;101779.31;5228399;28;20061;-66
2023/04/26 02:42:36;;;;;;;14.02;7.13;;;;;;;0.66;100.00;101776.72;5224401;28;20071;-66
2023/04/26 02:45:08;;;;;;;15.32;7.05;;;;;;;0.66;100.00;101784.59;5225493;28;20435;-66
2023/04/26 02:47:40;;;;;;;14.05;7.40;;;;;;;0.65;100.00;101782.00;5224360;28;20061;-66
2023/04/26 02:50:11;;;;;;;15.27;7.43;;;;;;;0.59;100.00;101788.25;5224438;28;20068;-66
2023/04/26 02:52:42;;;;;;;13.38;7.10;;;;;;;0.58;100.00;101783.91;5236690;28;20028;-67
2023/04/26 02:55:14;;;;;;;16.90;7.53;;;;;;;0.57;100.00;101788.25;5222368;28;20018;-66
2023/04/26 02:57:45;;;;;;;15.18;7.50;;;;;;;0.52;100.00;101781.41;5230982;28;20044;-66
2023/04/26 03:00:17;;;;;;;16.48;6.93;;;;;;;0.49;100.00;101779.69;5223403;28;20022;-66
2023/04/26 03:02:48;;;;;;;12.90;6.68;;;;;;;0.47;100.00;101772.75;5229125;28;20056;-66
2023/04/26 03:05:20;;;;;;;14.20;7.00;;;;;;;0.44;100.00;101771.03;5227822;28;20033;-66
2023/04/26 03:07:51;;;;;;;17.25;7.18;;;;;;;0.44;100.00;101770.16;5227151;28;20076;-66
2023/04/26 03:10:22;;;;;;;16.42;7.57;;;;;;;0.57;100.00;101774.28;5233316;28;20036;-66
2023/04/26 03:12:54;;;;;;;16.40;7.70;;;;;;;0.43;100.00;101765.81;5232127;28;20479;-66
2023/04/26 03:15:25;;;;;;;14.95;7.90;;;;;;;0.50;100.00;101765.66;5231683;28;20048;-67
2023/04/26 03:17:57;;;;;;;14.63;7.53;;;;;;;0.47;100.00;101780.63;5222329;28;20025;-67
2023/04/26 03:20:28;;;;;;;12.82;6.60;;;;;;;0.38;100.00;101773.75;5223644;28;20045;-67
2023/04/26 03:22:59;;;;;;;17.33;7.88;;;;;;;0.36;100.00;101775.56;5235347;28;20112;-67
2023/04/26 03:25:32;;;;;;;12.32;6.68;;;;;;;0.33;100.00;101768.63;5229922;28;20044;-67
2023/04/26 03:28:03;;;;;;;16.33;7.75;;;;;;;0.32;100.00;101766.00;5220550;28;20129;-67
2023/04/26 03:30:35;;;;;;;14.48;7.13;;;;;;;0.34;100.00;101766.84;5228981;28;20490;-67
2023/04/26 03:33:06;;;;;;;15.25;7.82;;;;;;;0.34;100.00;101762.47;5229165;28;20025;-67
2023/04/26 03:35:38;;;;;;;17.73;7.40;;;;;;;0.31;100.00;101769.56;5225212;28;20037;-67
2023/04/26 03:38:09;;;;;;;15.10;7.43;;;;;;;0.29;100.00;101760.81;5242897;28;20107;-67
2023/04/26 03:40:40;;;;;;;16.00;7.22;;;;;;;0.27;100.00;101760.88;5232679;28;20028;-67
2023/04/26 03:43:12;;;;;;;14.15;7.28;;;;;;;0.23;100.00;101759.19;5228756;28;20507;-67
2023/04/26 03:45:46;;;;;;;17.73;7.78;;;;;;;0.25;100.00;101761.78;5224041;28;20455;-67
2023/04/26 03:48:17;;;;;;;15.80;7.38;;;;;;;0.21;100.00;101765.34;5223689;28;20433;-67
2023/04/26 03:50:49;;;;;;;15.45;7.25;;;;;;;0.21;100.00;101762.72;5220893;28;20039;-67
2023/04/26 03:53:20;;;;;;;13.25;6.97;;;;;;;0.12;100.00;101748.88;5222738;28;20383;-67
2023/04/26 03:55:52;;;;;;;14.82;8.05;;;;;;;0.12;100.00;101764.63;5228488;28;20336;-67
2023/04/26 03:58:24;;;;;;;16.73;7.90;;;;;;;0.15;100.00;101767.22;5225437;28;20446;-67
2023/04/26 04:00:57;;;;;;;16.60;7.78;;;;;;;0.24;100.00;101770.56;5223150;28;20509;-67
2023/04/26 04:03:29;;;;;;;13.70;7.50;;;;;;;0.22;100.00;101770.56;5225210;28;20056;-67
2023/04/26 04:06:00;;;;;;;14.25;7.25;;;;;;;0.15;100.00;101769.84;5223711;28;20033;-67
2023/04/26 04:08:32;;;;;;;16.15;7.13;;;;;;;0.13;100.00;101768.97;5230622;28;20040;-67
2023/04/26 04:11:05;;;;;;;14.93;7.50;;;;;;;0.10;100.00;101766.44;5225888;28;20100;-67
2023/04/26 04:13:36;;;;;;;16.42;7.93;;;;;;;0.08;100.00;101768.22;5221692;28;20092;-67
2023/04/26 04:16:09;;;;;;;12.18;7.32;;;;;;;0.06;100.00;101762.13;5223383;28;20033;-67
2023/04/26 04:18:40;;;;;;;15.15;8.52;;;;;;;0.13;100.00;101771.59;5227475;28;20383;-67
2023/04/26 04:21:12;;;;;;;16.45;8.98;;;;;;;0.06;100.00;101767.38;5222100;28;20037;-67
2023/04/26 04:23:43;;;;;;;13.43;8.05;;;;;;;0.09;100.00;101758.56;5225528;28;20029;-67
2023/04/26 04:26:15;;;;;;;16.48;7.82;;;;;;;0.09;100.00;101763.81;5222881;28;20395;-67
2023/04/26 04:28:47;;;;;;;15.00;7.40;;;;;;;0.08;100.00;101762.97;5225869;28;20049;-68
2023/04/26 04:31:18;;;;;;;19.60;8.02;;;;;;;0.04;100.00;101771.78;5233286;28;20069;-67
2023/04/26 04:33:50;;;;;;;15.43;8.07;;;;;;;0.08;100.00;101768.22;5232177;28;20084;-67
2023/04/26 04:36:21;;;;;;;18.35;9.45;;;;;;;0.04;100.00;101760.41;5224125;28;20427;-67
2023/04/26 04:38:53;;;;;;;16.08;8.02;;;;;;;0.06;100.00;101775.25;5229631;28;20037;-67
2023/04/26 04:41:24;;;;;;;21.60;9.00;;;;;;;0.09;100.00;101777.78;5229639;28;20025;-67
2023/04/26 04:43:55;;;;;;;18.05;8.80;;;;;;;0.04;100.00;101782.28;5233869;28;20123;-67
2023/04/26 04:46:27;;;;;;;16.02;9.18;;;;;;;0.03;100.00;101780.53;5233333;28;20036;-67
2023/04/26 04:48:58;;;;;;;20.92;9.57;;;;;;;0.14;100.00;101786.47;5242499;28;20025;-67
2023/04/26 04:51:30;;;;;;;19.13;8.93;;;;;;;0.08;100.00;101783.94;5239162;28;20045;-67
2023/04/26 04:54:15;;;;;;;16.65;8.98;;;;;;;0.12;100.00;101788.25;5227952;28;20029;-67
2023/04/26 04:56:47;;;;;;;16.35;9.23;;;;;;;0.15;100.00;101788.22;5233550;28;20534;-67
2023/04/26 04:59:18;;;;;;;21.42;10.07;;;;;;;0.16;100.00;101792.53;5235004;28;20076;-67
2023/04/26 05:01:50;;;;;;;23.15;10.10;;;;;;;0.19;100.00;101792.50;5239443;28;20040;-67
2023/04/26 05:04:21;;;;;;;19.23;9.63;;;;;;;0.21;100.00;101795.06;5232668;28;20056;-67
2023/04/26 05:06:52;;;;;;;20.92;10.27;;;;;;;0.30;100.00;101801.94;5224245;28;20785;-67
2023/04/26 05:09:24;;;;;;;17.95;9.80;;;;;;;0.32;100.00;101802.75;5229695;28;20095;-67
2023/04/26 05:11:55;;;;;;;20.15;10.88;;;;;;;0.38;100.00;101792.16;5224081;28;20474;-67
2023/04/26 05:14:28;;;;;;;18.55;9.90;;;;;;;0.45;100.00;101793.75;5235850;28;20043;-67
2023/04/26 05:16:59;;;;;;;17.63;9.98;;;;;;;0.50;100.00;101791.03;5229675;28;20030;-67
2023/04/26 05:19:31;;;;;;;21.10;10.70;;;;;;;0.65;100.00;101789.88;5234581;28;20056;-67
2023/04/26 05:22:02;;;;;;;21.83;10.82;;;;;;;0.69;100.00;101800.31;5243474;28;20430;-67
2023/04/26 05:24:34;;;;;;;20.83;11.38;;;;;;;0.73;100.00;101804.59;5239280;28;20030;-67
2023/04/26 05:27:05;;;;;;;17.55;10.32;;;;;;;0.85;100.00;101795.59;5237515;28;20036;-67
2023/04/26 05:29:36;;;;;;;20.58;11.90;;;;;;;0.91;100.00;101797.25;5243290;28;20040;-67
2023/04/26 05:32:08;;;;;;;21.90;11.82;;;;;;;0.95;100.00;101805.00;5238416;28;20428;-67
2023/04/26 05:34:40;;;;;;;21.35;11.07;;;;;;;1.00;100.00;101810.19;5232115;28;20064;-67
2023/04/26 05:37:11;;;;;;;21.15;11.43;;;;;;;1.10;100.00;101800.34;5223163;28;20049;-67
2023/04/26 05:39:43;;;;;;;21.02;12.52;;;;;;;1.17;100.00;101804.56;5229600;28;20117;-67
2023/04/26 05:42:15;;;;;;;24.52;12.85;;;;;;;1.25;100.00;101812.28;5234039;28;20049;-67
2023/04/26 05:44:46;;;;;;;23.85;12.30;;;;;;;1.30;100.00;101807.78;5235440;28;20033;-67
2023/04/26 05:47:17;;;;;;;19.90;11.00;;;;;;;1.36;100.00;101812.88;5242616;28;20017;-67
2023/04/26 05:49:49;;;;;;;22.70;11.98;;;;;;;1.44;100.00;101808.34;5223152;28;20517;-67
2023/04/26 05:52:20;;;;;;;20.75;11.35;;;;;;;1.52;100.00;101805.53;5232743;28;20498;-67
2023/04/26 05:54:52;;;;;;;20.08;11.10;;;;;;;1.58;100.00;101809.78;5227226;28;20430;-67
2023/04/26 05:57:23;;;;;;;20.30;11.95;;;;;;;1.65;100.00;101811.34;5234915;28;20467;-67
2023/04/26 05:59:54;;;;;;;24.02;12.05;;;;;;;1.71;100.00;101801.56;5228930;28;20025;-67
2023/04/26 06:02:26;;;;;;;21.30;10.60;;;;;;;1.80;100.00;101803.09;5231789;28;20110;-67
2023/04/26 06:04:57;;;;;;;19.45;11.00;;;;;;;1.90;100.00;101801.13;5234372;28;20021;-67
2023/04/26 06:07:28;;;;;;;24.40;11.13;;;;;;;1.98;100.00;101803.56;5234348;28;20083;-67
2023/04/26 06:10:01;;;;;;;23.80;11.32;;;;;;;2.08;100.00;101807.69;5228782;28;20069;-67
2023/04/26 06:12:32;;;;;;;23.52;12.35;;;;;;;2.26;100.00;101814.22;5234885;28;20069;-67
2023/04/26 06:15:04;;;;;;;22.45;11.65;;;;;;;2.33;100.00;101806.13;5230184;28;20104;-67
2023/04/26 06:17:35;;;;;;;21.10;11.25;;;;;;;2.54;100.00;101820.47;5232090;28;20091;-67
2023/04/26 06:20:09;;;;;;;23.75;12.60;;;;;;;2.66;100.00;101814.00;5230882;28;20110;-67
2023/04/26 06:22:41;;;;;;;20.75;11.50;;;;;;;2.74;100.00;101816.41;5232774;28;20144;-68
2023/04/26 06:25:12;;;;;;;23.92;11.77;;;;;;;2.84;100.00;101817.91;5233705;28;20033;-68
2023/04/26 06:27:43;;;;;;;24.50;12.00;;;;;;;2.92;100.00;101815.91;5230353;28;20049;-68
2023/04/26 06:30:15;;;;;;;22.52;11.43;;;;;;;3.01;100.00;101816.53;5230526;28;20040;-67
2023/04/26 06:32:47;;;;;;;23.65;12.68;;;;;;;3.20;100.00;101824.78;5234238;28;20515;-68
2023/04/26 06:35:18;;;;;;;22.60;11.25;;;;;;;3.26;100.00;101830.75;5231432;28;20059;-67
2023/04/26 06:37:49;;;;;;;20.38;11.20;;;;;;;3.37;100.00;101832.19;5234013;28;20088;-67
2023/04/26 06:40:21;;;;;;;21.42;11.27;;;;;;;3.40;100.00;101822.41;5226107;28;20064;-68
2023/04/26 06:42:53;;;;;;;22.60;11.40;;;;;;;3.59;100.00;101835.88;5226952;28;20536;-68
2023/04/26 06:45:24;;;;;;;18.63;10.82;;;;;;;3.75;100.00;101838.91;5228139;28;20040;-68
2023/04/26 06:47:56;;;;;;;23.02;10.73;;;;;;;3.92;100.00;101836.56;5224213;28;20476;-68
2023/04/26 06:50:27;;;;;;;19.90;11.25;;;;;;;4.02;100.00;101839.78;5227037;28;20534;-68
2023/04/26 06:52:59;;;;;;;20.60;10.63;;;;;;;4.09;100.00;101835.16;5230062;28;20021;-68
2023/04/26 06:55:30;;;;;;;21.77;10.27;;;;;;;4.15;100.00;101832.31;5226798;28;20064;-67
2023/04/26 06:58:02;;;;;;;15.13;9.25;;;;;;;4.23;100.00;101834.69;5228552;28;20026;-68
2023/04/26 07:00:33;;;;;;;17.25;8.90;;;;;;;4.32;100.00;101826.47;5232750;28;20025;-68
2023/04/26 07:03:05;;;;;;;15.82;8.90;;;;;;;4.40;100.00;101831.47;5232746;28;20064;-68
2023/04/26 07:05:38;;;;;;;16.17;8.30;;;;;;;4.52;100.00;101828.38;5230478;28;20029;-68
2023/04/26 07:08:09;;;;;;;16.80;8.90;;;;;;;4.61;100.00;101829.84;5232332;28;20039;-68
2023/04/26 07:10:41;;;;;;;19.95;9.93;;;;;;;4.76;100.00;101839.88;5226267;28;20033;-68
2023/04/26 07:13:12;;;;;;;16.25;8.73;;;;;;;4.85;100.00;101828.97;5233323;28;20025;-68
2023/04/26 07:15:44;;;;;;;16.60;6.53;;;;;;;4.95;100.00;101832.13;5232112;28;20028;-68
2023/04/26 07:18:15;;;;;;;16.75;7.13;;;;;;;4.98;100.00;101828.50;5234367;28;20052;-68
2023/04/26 07:20:47;;;;;;;13.10;7.43;;;;;;;5.08;100.00;101835.16;5231566;28;20075;-68
2023/04/26 07:23:18;;;;;;;13.77;6.30;;;;;;;5.14;100.00;101828.78;5231752;28;20029;-67
2023/04/26 07:25:50;;;;;;;13.48;7.00;;;;;;;5.29;100.00;101833.50;5228313;28;20151;-68
2023/04/26 07:28:21;;;;;;;12.43;5.75;;;;;;;5.37;100.00;101831.44;5233820;28;20026;-68
2023/04/26 07:30:53;;;;;;;11.80;5.72;;;;;;;5.46;100.00;101836.34;5231215;28;20047;-68
2023/04/26 07:33:24;;;;;;;13.60;5.78;;;;;;;5.57;100.00;101835.94;5232790;28;20043;-68
2023/04/26 07:35:58;;;;;;;13.00;6.25;;;;;;;5.68;100.00;101824.94;5231401;28;20454;-68
2023/04/26 07:38:30;;;;;;;14.85;7.00;;;;;;;5.81;100.00;101823.50;5229859;28;20032;-68
2023/04/26 07:41:01;;;;;;;12.10;5.45;;;;;;;5.85;100.00;101822.44;5227498;28;20386;-68
2023/04/26 07:43:33;;;;;;;11.73;4.57;;;;;;;6.00;100.00;101820.13;5232312;28;20502;-68
2023/04/26 07:46:04;;;;;;;9.65;5.43;;;;;;;6.12;100.00;101818.72;5228829;28;20057;-68
2023/04/26 07:48:35;;;;;;;13.00;5.03;;;;;;;6.23;100.00;101811.19;5233925;28;20039;-68
2023/04/26 07:51:09;;;;;;;14.60;5.68;;;;;;;6.30;100.00;101812.66;5231224;28;20495;-68
2023/04/26 07:53:40;;;;;;;11.27;6.43;;;;;;;6.38;100.00;101817.63;5229414;28;20210;-68
2023/04/26 07:56:12;;;;;;;9.15;4.63;;;;;;;6.43;100.00;101813.84;5232424;28;20036;-68
2023/04/26 07:58:43;;;;;;;12.50;5.28;;;;;;;6.49;100.00;101815.38;5231612;28;20037;-67
2023/04/26 08:01:15;;;;;;;11.52;5.72;;;;;;;6.58;100.00;101827.38;5233797;28;20120;-67
2023/04/26 08:03:47;;;;;;;15.45;5.40;;;;;;;6.64;100.00;101827.09;5234443;28;20427;-67
2023/04/26 08:06:18;;;;;;;10.65;3.22;;;;;;;6.63;100.00;101828.88;5229702;28;20084;-67
2023/04/26 08:08:51;;;;;;;10.75;3.92;;;;;;;6.68;100.00;101834.84;5230785;28;20041;-67
2023/04/26 08:11:23;;;;;;;9.02;4.05;;;;;;;6.76;100.00;101836.31;5229798;28;20475;-68
2023/04/26 08:13:54;;;;;;;9.90;4.38;;;;;;;6.89;100.00;101834.81;5231854;28;20040;-66
2023/04/26 08:16:26;;;;;;;9.73;3.60;;;;;;;7.07;100.00;101836.63;5232951;28;20040;-67
2023/04/26 08:19:01;;;;;;;10.05;3.50;;;;;;;7.22;100.00;101835.06;5231023;28;20072;-67
2023/04/26 08:21:32;;;;;;;7.93;3.33;;;;;;;7.34;100.00;101827.47;5232063;28;20060;-67
2023/04/26 08:24:04;;;;;;;6.07;2.60;;;;;;;7.46;100.00;101833.06;5232036;28;20458;-67
2023/04/26 08:26:35;;;;;;;5.18;2.78;;;;;;;7.45;100.00;101830.47;5232720;28;20037;-67
2023/04/26 08:29:07;;;;;;;6.45;1.83;;;;;;;7.44;100.00;101821.66;5227732;28;20091;-67
2023/04/26 08:31:39;;;;;;;4.80;1.10;;;;;;;7.38;100.00;101824.59;5233806;28;20376;-67
2023/04/26 08:34:12;;;;;;;5.28;1.15;;;;;;;7.57;100.00;101835.19;5233110;28;20029;-67
2023/04/26 08:36:44;;;;;;;9.32;1.85;;;;;;;7.57;100.00;101824.56;5232102;28;20665;-67
2023/04/26 08:39:16;;;;;;;6.65;2.45;;;;;;;7.82;100.00;101826.91;5230525;28;20060;-67
2023/04/26 08:41:51;;;;;;;5.90;2.28;;;;;;;7.91;100.00;101833.53;5231668;28;20163;-67
2023/04/26 08:44:24;;;;;;;7.68;2.50;;;;;;;8.02;100.00;101817.94;5234002;28;20040;-67
2023/04/26 08:47:05;;;;;;;6.63;2.03;;;;;;;7.98;100.00;101816.38;5233464;28;20021;-67
2023/04/26 08:49:52;;;;;;;4.97;2.00;;;;;;;7.96;100.00;101822.72;5230831;28;20384;-67
2023/04/26 08:52:27;;;;;;;5.50;1.60;;;;;;;7.98;100.00;101827.00;5232516;28;20036;-67
2023/04/26 08:54:59;;;;;;;6.07;1.73;;;;;;;7.93;100.00;101815.72;5228434;28;20041;-66
2023/04/26 08:57:32;;;;;;;7.75;1.98;;;;;;;7.89;100.00;101815.97;5229703;28;20029;-67
2023/04/26 09:00:05;;;;;;;5.22;2.17;;;;;;;7.95;100.00;101824.47;5231716;28;20041;-67
2023/04/26 09:02:38;;;;;;;7.57;2.55;;;;;;;7.94;100.00;101824.56;5228083;28;20057;-67
2023/04/26 09:05:10;;;;;;;6.38;2.63;;;;;;;7.98;100.00;101816.38;5232678;28;20041;-67
2023/04/26 09:07:44;;;;;;;9.05;2.60;;;;;;;8.05;100.00;101815.13;5230463;28;20030;-67
2023/04/26 09:10:20;;;;;;;6.53;2.60;;;;;;;8.13;100.00;101819.19;5231693;28;20036;-67
2023/04/26 09:12:52;;;;;;;14.07;3.40;;;;;;;8.25;100.00;101806.13;5228814;28;20029;-67
2023/04/26 09:15:25;;;;;;;7.15;2.70;;;;;;;8.41;100.00;101808.00;5229838;28;20091;-67
2023/04/26 09:18:15;;;;;;;6.70;2.80;;;;;;;8.57;100.00;101810.75;5230168;28;20022;-67
2023/04/26 09:21:06;;;;;;;8.90;2.67;;;;;;;8.89;100.00;101802.84;5231422;28;20447;-66
2023/04/26 09:23:56;;;;;;;6.15;2.30;;;;;;;9.00;100.00;101803.97;5230493;28;20030;-67
2023/04/26 09:26:28;;;;;;;6.88;2.20;;;;;;;9.12;100.00;101799.78;5230919;28;20120;-67
2023/04/26 09:29:12;;;;;;;6.65;2.20;;;;;;;9.27;100.00;101795.41;5229307;28;20029;-67
2023/04/26 09:31:46;;;;;;;7.18;2.30;;;;;;;9.44;100.00;101798.97;5230297;28;20033;-67
2023/04/26 09:34:17;;;;;;;5.53;1.98;;;;;;;9.62;100.00;101803.22;5230649;28;20360;-66
2023/04/26 09:36:50;;;;;;;6.95;2.28;;;;;;;9.57;100.00;101802.66;5227758;28;20083;-67
2023/04/26 09:39:39;;;;;;;8.98;3.10;;;;;;;9.54;100.00;101810.81;5227818;28;20023;-66
2023/04/26 09:42:10;;;;;;;7.63;2.53;;;;;;;9.42;100.00;101809.69;5233339;28;20029;-67
2023/04/26 09:44:41;;;;;;;7.72;2.88;;;;;;;9.23;100.00;101805.38;5231623;28;20079;-67
2023/04/26 09:47:13;;;;;;;6.15;2.60;;;;;;;9.14;100.00;101808.53;5231168;28;20044;-67
2023/04/26 09:49:49;;;;;;;9.15;2.92;;;;;;;9.17;100.00;101807.53;5228398;28;20026;-66
2023/04/26 09:52:20;;;;;;;7.32;3.20;;;;;;;9.17;100.00;101805.72;5230423;28;20808;-67
2023/04/26 09:54:53;;;;;;;4.85;2.22;;;;;;;9.22;100.00;101803.69;5231403;28;20026;-66
2023/04/26 09:57:24;;;;;;;6.97;2.30;;;;;;;9.44;100.00;101804.28;5233126;28;20029;-66
2023/04/26 09:59:56;;;;;;;7.80;2.65;;;;;;;9.49;100.00;101802.19;5225639;28;20018;-66
2023/04/26 10:02:28;;;;;;;6.07;2.22;;;;;;;9.42;100.00;101801.69;5231772;28;20396;-66
2023/04/26 10:05:01;;;;;;;8.13;2.55;;;;;;;9.51;100.00;101797.63;5229439;28;20036;-66
2023/04/26 10:07:33;;;;;;;5.55;2.53;;;;;;;9.37;100.00;101804.59;5232360;28;20247;-66
2023/04/26 10:10:06;;;;;;;7.50;2.75;;;;;;;9.26;100.00;101806.16;5234194;28;20475;-66
2023/04/26 10:12:41;;;;;;;7.90;2.65;;;;;;;9.16;100.00;101803.16;5233692;28;20116;-66
2023/04/26 10:15:13;;;;;;;7.47;2.60;;;;;;;9.06;100.00;101808.13;5236743;28;20021;-67
2023/04/26 10:17:45;;;;;;;7.22;2.80;;;;;;;8.99;100.00;101807.59;5235439;28;20088;-67
2023/04/26 10:20:20;;;;;;;8.18;2.60;;;;;;;8.88;100.00;101804.66;5232301;28;20033;-66
2023/04/26 10:22:54;;;;;;;10.52;3.28;;;;;;;8.78;100.00;101796.31;5228540;28;20476;-66
2023/04/26 10:25:38;;;;;;;;;;;;;;;8.90;100.00;101805.44;5233564;28;20488;-67
2023/04/26 10:28:10;;;;;;;8.82;3.33;;;;;;;8.69;100.00;101807.44;5229144;28;19920;-66
2023/04/26 10:30:58;;;;;;;9.52;3.08;;;;;;;8.66;100.00;101796.97;5232611;28;20033;-66
2023/04/26 10:33:30;;;;;;;8.25;3.33;;;;;;;8.54;100.00;101803.78;5231814;28;20026;-66
2023/04/26 10:36:05;;;;;;;8.98;3.28;;;;;;;8.49;100.00;101800.50;5234002;28;20071;-66
2023/04/26 10:38:39;;;;;;;6.55;3.22;;;;;;;8.50;100.00;101798.72;5231301;28;20025;-67
2023/04/26 10:41:33;;;;;;;7.90;3.57;;;;;;;8.64;100.00;101801.50;5230524;28;20883;-65
2023/04/26 10:44:33;;;;;;;9.05;3.38;;;;;;;8.69;100.00;101788.81;5231941;28;20025;-66
2023/04/26 10:47:06;;;;;;;9.55;3.88;;;;;;;8.71;100.00;101778.97;5233772;28;20033;-66
2023/04/26 10:49:45;;;;;;;8.03;3.90;;;;;;;8.78;100.00;101788.34;5232940;28;20357;-66
2023/04/26 10:52:19;;;;;;;8.15;3.72;;;;;;;8.80;100.00;101783.78;5232058;28;20155;-66
2023/04/26 10:54:56;;;;;;;8.32;4.05;;;;;;;8.99;100.00;101791.63;5229813;28;20438;-66
2023/04/26 10:57:49;;;;;;;7.75;3.47;;;;;;;9.15;100.00;101785.47;5233126;28;20383;-66
2023/04/26 11:00:25;;;;;;;11.27;4.95;;;;;;;9.17;100.00;101792.41;5231617;28;20140;-65
2023/04/26 11:02:57;;;;;;;10.65;4.25;;;;;;;9.25;100.00;101789.31;5230279;28;20488;-66
2023/04/26 11:05:51;;;;;;;8.07;3.42;;;;;;;9.36;100.00;101786.06;5231195;28;20025;-66
2023/04/26 11:08:28;;;;;;;6.80;3.58;;;;;;;9.38;100.00;101790.34;5235102;28;20071;-66
2023/04/26 11:11:09;;;;;;;6.10;3.67;;;;;;;9.62;100.00;101782.75;5229586;28;20468;-66
2023/04/26 11:13:42;;;;;;;9.68;4.18;;;;;;;9.76;100.00;101781.97;5232084;28;20357;-66
2023/04/26 11:16:15;;;;;;;8.02;3.90;;;;;;;9.82;100.00;101776.28;5233347;28;20034;-66
2023/04/26 11:18:47;;;;;;;5.97;3.78;;;;;;;9.87;100.00;101773.34;5232825;28;20514;-66
2023/04/26 11:21:20;;;;;;;7.78;3.60;;;;;;;9.81;100.00;101771.88;5230213;28;20575;-66
2023/04/26 11:23:53;;;;;;;7.13;3.58;;;;;;;9.88;100.00;101779.56;5231384;28;21264;-66
2023/04/26 11:26:31;;;;;;;8.15;3.03;;;;;;;9.79;100.00;101775.59;5231509;28;20021;-66
2023/04/26 11:29:03;;;;;;;9.82;4.07;;;;;;;9.95;100.00;101763.09;5230299;28;20033;-66
2023/04/26 11:31:35;;;;;;;8.32;3.47;;;;;;;9.97;100.00;101758.53;5232606;28;20032;-66
2023/04/26 11:34:06;;;;;;;5.85;3.30;;;;;;;10.21;100.00;101747.34;5230520;28;20033;-66
2023/04/26 11:36:37;;;;;;;6.15;3.80;;;;;;;10.18;100.00;101751.06;5230029;28;20402;-66
2023/04/26 11:39:10;;;;;;;9.05;3.70;;;;;;;10.23;100.00;101747.25;5231315;28;20040;-66
2023/04/26 11:41:41;;;;;;;6.20;3.35;;;;;;;10.23;100.00;101745.44;5232024;28;20047;-66
2023/04/26 11:44:17;;;;;;;7.75;3.83;;;;;;;10.28;100.00;101755.81;5229045;28;20025;-66